Portada
METAR-TAF:

METAR-TAF

Aeroports :

Savannakhet, Laos

latitud: 16-33-24N, longitud: 104-45-34E, altitud: 155 m

Observació

L'informe es va fer fa 8 hores i 35 minuts, a les 13:00 UTC
Vent 2 kt del Est/Nord-Est
Temperatura 21°C
Humitat 60%
Pressió 1015 hPa
Visibilitat: 5000 m
Núvols disperses a una alçada de 4000 ft
boirina

METAR: VLSK 111300Z 06002KT 5000 BR SCT040 21/13 Q1015 NOSIG

Hora: 04:35 (21:35 UTC)

Pronòstic

L'informe es va fer fa 4 hores i 35 minuts, a les 17:00 UTC
Pronòstic vàlid del 11 a les 18 UTC al 12 a les 18 UTC
Vent 4 kt del Nord-Est
Visibilitat: 8000 m
Escasses núvols a una alçada de 2000 ft
Temporalment
l' 11 a les 18 UTC al 12 a les 00 UTC
Visibilitat: 3000 m
Escasses núvols a una alçada de 4000 ft
boirina

TAF: VLSK 111700Z 1118/1218 04004KT 8000 FEW020 TEMPO 1118/1200 3000 BR FEW040

Observacions i pronòstics meteorològics de més de 4000 aeroports (METAR i TAF).

Les estacions disponibles són els punts grocs i vermells al mapa.

Posi el ratolí al punt desitjat per veure el nom de l'estació.

Feu clic per veure les observacions i els pronòstics meteorològics.

Per canviar el mapa: feu clic els botons verds amb una creu de color negre per apropar; al botó verd amb un guió per allunyar la imatge; o en les fletxes verdes per a mapes adjacents.


METAR-TAF: